Saltar para o conteúdo principal

Barcelos (CIM)

ID 6212125 · 41.5294, -8.6271 mapa

Última leitura · 2026-05-09 19:00 (Europe/Lisbon)

Temperatura
16.7 °C
Humidade
76 %
Pressão
1,006.5 hPa
Precipitação
0.0 mm
Radiação
542 W/m²
Velocidade do vento
11.5 km/h
Direcção do vento
SW · Sudoeste

Histórico de 24 horas

Hora (Europe/Lisbon) Temperatura Humidade Pressão Chuva Vento Direcção
2026-05-09 19:00 16.7 °C 76 % 1,006.5 0.0 mm 11.5 km/h SW
2026-05-09 18:00 16.8 °C 79 % 1,005.9 0.0 mm 13.7 km/h SW
2026-05-09 17:00 16.9 °C 77 % 1,005.8 0.0 mm 10.1 km/h SE
2026-05-09 16:00 15.4 °C 89 % 1,005.6 0.0 mm 7.6 km/h S
2026-05-09 15:00 16.5 °C 83 % 1,004.9 0.0 mm 6.5 km/h S
2026-05-09 14:00 17.1 °C 81 % 1,005.0 0.0 mm 5.8 km/h NE
2026-05-09 13:00 14.7 °C 94 % 1,005.5 0.0 mm 5.8 km/h NE
2026-05-09 12:00 13.8 °C 95 % 1,005.8 0.0 mm 8.3 km/h W
2026-05-09 11:00 14.8 °C 88 % 1,005.4 0.0 mm 7.9 km/h W
2026-05-09 10:00 15.1 °C 85 % 1,005.1 0.0 mm 2.9 km/h SW
2026-05-09 09:00 14.6 °C 85 % 1,005.3 0.0 mm 3.6 km/h SE
2026-05-09 08:00 12.7 °C 96 % 1,005.3 0.0 mm 4.3 km/h E
2026-05-09 07:00 12.2 °C 97 % 1,005.3 0.0 mm 1.4 km/h N
2026-05-09 06:00 12.6 °C 94 % 1,005.5 0.0 mm 1.8 km/h SE
2026-05-09 05:00 13.7 °C 90 % 1,005.8 0.0 mm 1.8 km/h N
2026-05-09 04:00 13.9 °C 91 % 1,006.1 0.0 mm 2.2 km/h N
2026-05-09 03:00 14.2 °C 90 % 1,006.3 0.0 mm 2.2 km/h NW
2026-05-09 02:00 14.9 °C 81 % 1,007.2 0.0 mm 6.1 km/h E
2026-05-09 01:00 15.2 °C 72 % 1,006.9 0.0 mm 10.4 km/h S
2026-05-09 00:00 15.4 °C 72 % 1,007.0 0.0 mm 8.6 km/h E
2026-05-08 23:00 15.7 °C 70 % 1,007.6 0.0 mm 6.8 km/h E
2026-05-08 22:00 16.4 °C 66 % 1,007.9 0.0 mm 7.9 km/h NE
2026-05-08 21:00 17.4 °C 59 % 1,007.9 0.0 mm 9.4 km/h NE
2026-05-08 20:00 18.4 °C 48 % 1,008.2 0.0 mm 2.9 km/h N